createdAt,value
2018-11-26T00:00:35.216Z,46.40
2018-11-26T00:03:11.585Z,42.37
2018-11-26T00:05:46.604Z,41.70
2018-11-26T00:08:21.099Z,44.37
2018-11-26T00:11:33.513Z,42.40
2018-11-26T00:14:08.021Z,42.70
2018-11-26T00:16:42.519Z,47.83
2018-11-26T00:19:17.368Z,42.30
2018-11-26T00:21:52.093Z,44.77
2018-11-26T00:24:26.894Z,47.10
2018-11-26T00:27:01.639Z,44.33
2018-11-26T00:29:36.366Z,42.40
2018-11-26T00:32:11.204Z,46.07
2018-11-26T00:34:45.713Z,41.40
2018-11-26T00:37:20.262Z,41.90
2018-11-26T00:39:55.044Z,48.00
2018-11-26T00:42:29.715Z,50.97
2018-11-26T00:45:04.450Z,48.57
2018-11-26T00:47:39.174Z,50.63
2018-11-26T00:50:13.718Z,53.80
2018-11-26T00:52:48.347Z,54.43
2018-11-26T00:55:24.312Z,43.47
2018-11-26T00:57:59.097Z,58.57
2018-11-26T01:00:33.760Z,51.57
2018-11-26T01:03:08.551Z,60.17
2018-11-26T01:05:43.468Z,56.77
2018-11-26T01:08:18.357Z,56.37
2018-11-26T01:10:55.964Z,72.37
2018-11-26T01:13:30.780Z,61.97
2018-11-26T01:16:05.580Z,58.10
2018-11-26T01:18:40.553Z,72.00
2018-11-26T01:21:15.206Z,64.50
2018-11-26T01:23:49.903Z,58.23
2018-11-26T01:26:24.799Z,64.63
2018-11-26T01:29:00.811Z,60.00
2018-11-26T01:31:35.571Z,71.30
2018-11-26T01:34:10.451Z,65.93
2018-11-26T01:36:45.239Z,61.10
2018-11-26T01:39:21.187Z,61.17
2018-11-26T01:41:56.006Z,60.67
2018-11-26T01:44:30.783Z,63.43
2018-11-26T01:47:06.057Z,61.43
2018-11-26T01:49:40.776Z,59.07
2018-11-26T01:52:15.534Z,60.37
2018-11-26T01:54:50.129Z,62.63
2018-11-26T01:57:25.090Z,55.60
2018-11-26T01:59:59.996Z,58.23
2018-11-26T02:02:34.989Z,58.43
2018-11-26T02:05:09.891Z,54.37
2018-11-26T02:07:44.754Z,53.93
2018-11-26T02:10:20.380Z,58.90
2018-11-26T02:12:55.091Z,53.20
2018-11-26T02:15:38.338Z,53.00
2018-11-26T02:18:13.151Z,56.03
2018-11-26T02:20:48.059Z,52.80
2018-11-26T02:23:22.974Z,55.83
2018-11-26T02:26:04.605Z,55.40
2018-11-26T02:28:41.032Z,52.03
2018-11-26T02:31:15.903Z,56.43
2018-11-26T02:33:50.898Z,52.30
2018-11-26T02:36:25.570Z,53.03
2018-11-26T02:39:00.372Z,55.90
2018-11-26T02:41:35.124Z,52.03
2018-11-26T02:44:09.854Z,56.40
2018-11-26T02:46:45.217Z,55.43
2018-11-26T02:49:19.927Z,54.40
2018-11-26T02:51:54.585Z,49.70
2018-11-26T02:54:29.171Z,56.30
2018-11-26T02:57:03.942Z,57.90
2018-11-26T02:59:38.635Z,52.27
2018-11-26T03:02:13.263Z,59.33
2018-11-26T03:04:47.964Z,59.03
2018-11-26T03:07:22.889Z,56.03
2018-11-26T03:09:57.541Z,54.23
2018-11-26T03:12:32.418Z,54.10
2018-11-26T03:15:11.175Z,52.67
2018-11-26T03:17:45.852Z,47.50
2018-11-26T03:20:20.946Z,46.67
2018-11-26T03:22:55.804Z,45.47
2018-11-26T03:25:30.561Z,52.30
2018-11-26T03:28:08.094Z,48.80
2018-11-26T03:30:42.689Z,33.73
2018-11-26T03:33:17.563Z,45.77
2018-11-26T03:35:52.111Z,44.83
2018-11-26T03:38:39.614Z,45.00
2018-11-26T03:41:14.386Z,40.30
2018-11-26T03:43:49.328Z,46.70
2018-11-26T03:46:23.907Z,33.73
2018-11-26T03:48:58.801Z,38.03
2018-11-26T03:51:33.425Z,39.93
2018-11-26T03:54:08.375Z,40.90
2018-11-26T03:56:42.951Z,42.63
2018-11-26T03:59:18.057Z,41.73
2018-11-26T04:01:52.943Z,38.23
2018-11-26T04:04:27.827Z,35.87
2018-11-26T04:07:03.455Z,36.83
2018-11-26T04:09:38.285Z,42.60
2018-11-26T04:12:13.441Z,39.90
2018-11-26T04:14:49.078Z,35.67
2018-11-26T04:17:23.951Z,36.83
2018-11-26T04:19:58.570Z,36.73
2018-11-26T04:22:33.347Z,36.03
2018-11-26T04:25:09.082Z,36.67
2018-11-26T04:27:43.964Z,42.30
2018-11-26T04:30:19.115Z,34.20
2018-11-26T04:32:53.831Z,39.60
2018-11-26T04:35:28.776Z,35.47
2018-11-26T04:38:03.744Z,35.43
2018-11-26T04:40:38.545Z,36.27
2018-11-26T04:43:13.267Z,37.00
2018-11-26T04:45:48.095Z,28.27
2018-11-26T04:48:22.922Z,32.37
2018-11-26T04:50:57.698Z,37.93
2018-11-26T04:53:32.536Z,31.83
2018-11-26T04:56:07.376Z,34.87
2018-11-26T04:58:42.104Z,35.90
2018-11-26T05:01:16.766Z,33.70
2018-11-26T05:03:51.560Z,37.60
2018-11-26T05:06:26.295Z,31.10
2018-11-26T05:09:01.171Z,33.20
2018-11-26T05:11:35.977Z,34.63
2018-11-26T05:14:11.176Z,36.60
2018-11-26T05:16:46.766Z,35.70
2018-11-26T05:19:21.333Z,33.67
2018-11-26T05:21:56.220Z,34.37
2018-11-26T05:24:31.090Z,35.60
2018-11-26T05:27:12.461Z,35.50
2018-11-26T05:29:47.403Z,33.60
2018-11-26T05:32:22.147Z,30.33
2018-11-26T05:34:57.100Z,29.13
2018-11-26T05:37:31.879Z,33.20
2018-11-26T05:40:12.433Z,33.70
2018-11-26T05:42:47.438Z,33.63
2018-11-26T05:45:22.295Z,33.40
2018-11-26T05:47:57.138Z,30.67
2018-11-26T05:50:31.814Z,30.47
2018-11-26T05:53:07.370Z,30.97
2018-11-26T05:55:42.622Z,31.60
2018-11-26T05:58:17.440Z,30.33
2018-11-26T06:00:51.997Z,29.27
2018-11-26T06:03:26.865Z,32.40
2018-11-26T06:06:01.932Z,30.20
2018-11-26T06:08:37.000Z,28.50
2018-11-26T06:11:12.000Z,23.43
2018-11-26T06:13:46.900Z,32.50
2018-11-26T06:16:21.859Z,28.73
2018-11-26T06:18:56.577Z,26.23
2018-11-26T06:21:31.095Z,30.80
2018-11-26T06:24:06.047Z,29.47
2018-11-26T06:26:40.875Z,30.63
2018-11-26T06:29:16.113Z,26.07
2018-11-26T06:31:50.920Z,29.40
2018-11-26T06:34:25.795Z,29.27
2018-11-26T06:37:00.599Z,30.20
2018-11-26T06:39:35.244Z,32.33
2018-11-26T06:42:10.053Z,29.67
2018-11-26T06:44:45.008Z,17.30
2018-11-26T06:47:20.061Z,24.17
2018-11-26T06:49:55.011Z,29.23
2018-11-26T06:52:29.801Z,28.17
2018-11-26T06:55:04.683Z,28.60
2018-11-26T06:57:39.843Z,27.40
2018-11-26T07:00:16.820Z,26.23
2018-11-26T07:02:51.708Z,30.83
2018-11-26T07:05:27.412Z,29.57
2018-11-26T07:08:02.232Z,25.87
2018-11-26T07:10:36.771Z,21.63
2018-11-26T07:13:11.421Z,22.90
2018-11-26T07:15:45.813Z,24.30
2018-11-26T07:18:20.504Z,27.00
2018-11-26T07:20:55.326Z,24.17
2018-11-26T07:23:30.033Z,22.13
2018-11-26T07:26:05.147Z,20.37
2018-11-26T07:28:40.022Z,22.07
2018-11-26T07:31:15.787Z,23.03
2018-11-26T07:33:52.167Z,20.10
2018-11-26T07:36:28.096Z,19.53
2018-11-26T07:39:03.390Z,17.80
2018-11-26T07:41:38.362Z,19.57
2018-11-26T07:44:13.123Z,20.93
2018-11-26T07:46:48.677Z,22.20
2018-11-26T07:49:23.589Z,17.27
2018-11-26T07:51:58.723Z,23.40
2018-11-26T07:54:33.575Z,25.43
2018-11-26T07:57:08.298Z,23.87
2018-11-26T07:59:43.334Z,24.50
2018-11-26T08:02:18.075Z,22.00
2018-11-26T08:04:52.949Z,24.17
2018-11-26T08:07:28.350Z,23.63
2018-11-26T08:10:03.348Z,23.00
2018-11-26T08:12:38.001Z,22.77
2018-11-26T08:15:14.698Z,23.10
2018-11-26T08:17:50.103Z,23.07
2018-11-26T08:20:24.798Z,25.40
2018-11-26T08:22:59.595Z,27.53
2018-11-26T08:25:34.116Z,26.70
2018-11-26T08:28:08.684Z,23.10
2018-11-26T08:30:43.245Z,24.00
2018-11-26T08:33:18.989Z,20.33
2018-11-26T08:35:58.936Z,19.27
2018-11-26T08:38:39.035Z,16.63
2018-11-26T08:41:19.989Z,18.00
2018-11-26T08:43:57.655Z,19.80
2018-11-26T08:46:36.876Z,20.50
2018-11-26T08:49:12.137Z,22.10
2018-11-26T08:51:47.626Z,23.03
2018-11-26T08:54:22.637Z,23.80
2018-11-26T08:56:57.658Z,24.27
2018-11-26T08:59:32.379Z,24.53
2018-11-26T09:02:09.971Z,19.07
2018-11-26T09:04:48.179Z,23.10
2018-11-26T09:07:22.741Z,23.50
2018-11-26T09:09:57.558Z,24.10
2018-11-26T09:12:32.342Z,22.60
2018-11-26T09:15:07.851Z,22.73
2018-11-26T09:17:42.472Z,24.80
2018-11-26T09:20:17.440Z,19.87
2018-11-26T09:22:52.401Z,19.20
2018-11-26T09:25:27.967Z,22.30
2018-11-26T09:28:02.499Z,22.40
2018-11-26T09:30:37.238Z,22.50
2018-11-26T09:33:11.991Z,19.53
2018-11-26T09:35:46.441Z,20.67
2018-11-26T09:38:20.958Z,21.10
2018-11-26T09:40:55.749Z,22.37
2018-11-26T09:43:30.515Z,22.40
2018-11-26T09:46:05.788Z,24.13
2018-11-26T09:48:40.897Z,22.17
2018-11-26T09:51:16.975Z,19.97
2018-11-26T09:53:52.412Z,20.37
2018-11-26T09:56:27.385Z,21.33
2018-11-26T09:59:02.167Z,21.40
2018-11-26T10:01:36.978Z,20.73
2018-11-26T10:04:11.433Z,18.50
2018-11-26T10:06:47.328Z,15.37
2018-11-26T10:09:23.300Z,21.87
2018-11-26T10:11:58.147Z,21.10
2018-11-26T10:14:32.647Z,22.37
2018-11-26T10:17:07.094Z,22.20
2018-11-26T10:19:41.802Z,22.20
2018-11-26T10:22:16.688Z,18.70
2018-11-26T10:24:52.108Z,19.90
2018-11-26T10:27:26.700Z,24.97
2018-11-26T10:30:02.225Z,20.10
2018-11-26T10:32:37.054Z,24.63
2018-11-26T10:35:14.374Z,22.60
2018-11-26T10:37:48.949Z,22.30
2018-11-26T10:40:27.065Z,23.57
2018-11-26T10:43:01.702Z,24.27
2018-11-26T10:45:36.777Z,22.20
2018-11-26T10:48:11.595Z,24.47
2018-11-26T10:50:46.719Z,20.80
2018-11-26T10:53:21.799Z,23.50
2018-11-26T10:55:56.643Z,24.40
2018-11-26T10:58:31.349Z,25.67
2018-11-26T11:01:11.315Z,24.00
2018-11-26T11:03:46.792Z,21.03
2018-11-26T11:06:21.733Z,21.93
2018-11-26T11:08:57.007Z,20.27
2018-11-26T11:11:31.600Z,20.90
2018-11-26T11:14:06.495Z,20.57
2018-11-26T11:16:41.401Z,20.40
2018-11-26T11:19:16.235Z,21.80
2018-11-26T11:21:51.671Z,22.47
2018-11-26T11:24:32.354Z,22.53
2018-11-26T11:27:07.344Z,23.30
2018-11-26T11:29:42.142Z,17.13
2018-11-26T11:32:17.142Z,22.40
2018-11-26T11:34:52.080Z,21.63
2018-11-26T11:37:26.955Z,21.00
2018-11-26T11:40:01.667Z,23.10
2018-11-26T11:42:36.730Z,22.87
2018-11-26T11:45:13.340Z,21.97
2018-11-26T11:47:49.345Z,22.47
2018-11-26T11:50:24.870Z,23.93
2018-11-26T11:53:01.164Z,24.00
2018-11-26T11:55:36.180Z,26.50
2018-11-26T11:58:10.841Z,20.30
2018-11-26T12:00:46.764Z,22.13
2018-11-26T12:03:21.631Z,23.50
2018-11-26T12:05:56.048Z,22.80
2018-11-26T12:08:30.823Z,22.30
2018-11-26T12:11:06.513Z,22.90
2018-11-26T12:13:44.596Z,26.13
2018-11-26T12:16:19.495Z,23.27
2018-11-26T12:18:54.338Z,25.63
2018-11-26T12:21:29.056Z,26.03
2018-11-26T12:24:03.899Z,26.67
2018-11-26T12:26:38.938Z,26.80
2018-11-26T12:29:13.572Z,26.07
2018-11-26T12:31:48.612Z,27.77
2018-11-26T12:34:23.481Z,28.53
2018-11-26T12:36:58.258Z,24.17
2018-11-26T12:39:32.978Z,28.77
2018-11-26T12:42:07.787Z,29.73
2018-11-26T12:44:51.259Z,27.17
2018-11-26T12:47:27.032Z,27.47
2018-11-26T12:50:01.912Z,26.60
2018-11-26T12:52:38.840Z,28.87
2018-11-26T12:55:19.978Z,28.23
2018-11-26T12:57:56.348Z,25.60
2018-11-26T13:00:31.188Z,23.97
2018-11-26T13:03:09.797Z,24.13
2018-11-26T13:05:46.984Z,26.67
2018-11-26T13:08:21.647Z,28.60
2018-11-26T13:10:56.400Z,28.87
2018-11-26T13:13:30.975Z,24.13
2018-11-26T13:16:05.641Z,28.80
2018-11-26T13:18:40.478Z,26.00
2018-11-26T13:21:16.146Z,24.20
2018-11-26T13:23:51.220Z,24.67
2018-11-26T13:26:25.859Z,26.83
2018-11-26T13:29:00.570Z,27.10
2018-11-26T13:31:35.510Z,25.30
2018-11-26T13:34:10.328Z,26.43
2018-11-26T13:36:47.526Z,23.93
2018-11-26T13:39:22.388Z,25.43
2018-11-26T13:41:57.080Z,27.57
2018-11-26T13:44:31.686Z,27.60
2018-11-26T13:47:08.305Z,26.60
2018-11-26T13:49:42.980Z,22.93
2018-11-26T13:52:17.889Z,24.90
2018-11-26T13:54:52.924Z,26.93
2018-11-26T13:57:27.534Z,22.67
2018-11-26T14:00:02.533Z,25.30
2018-11-26T14:02:37.157Z,26.50
2018-11-26T14:05:14.402Z,25.53
2018-11-26T14:07:49.011Z,21.80
2018-11-26T14:10:25.853Z,26.60
2018-11-26T14:13:07.865Z,22.77
2018-11-26T14:15:42.623Z,23.87
2018-11-26T14:18:18.817Z,24.03
2018-11-26T14:20:53.434Z,26.40
2018-11-26T14:23:29.243Z,23.67
2018-11-26T14:26:03.984Z,23.60
2018-11-26T14:28:38.893Z,21.23
2018-11-26T14:31:14.449Z,24.60
2018-11-26T14:33:49.058Z,21.83
2018-11-26T14:36:23.937Z,23.63
2018-11-26T14:38:59.976Z,24.63
2018-11-26T14:41:35.779Z,21.77
2018-11-26T14:44:10.704Z,25.50
2018-11-26T14:46:45.730Z,25.83
2018-11-26T14:49:20.873Z,23.90
2018-11-26T14:51:55.413Z,24.47
2018-11-26T14:54:31.065Z,26.50
2018-11-26T14:57:05.970Z,26.00
2018-11-26T14:59:41.009Z,26.10
2018-11-26T15:02:15.929Z,23.00
2018-11-26T15:04:51.426Z,24.70
2018-11-26T15:07:26.980Z,24.90
2018-11-26T15:10:01.835Z,23.37
2018-11-26T15:12:36.512Z,23.37
2018-11-26T15:15:15.276Z,22.53
2018-11-26T15:17:50.329Z,18.73
2018-11-26T15:20:26.942Z,19.30
2018-11-26T15:23:01.569Z,26.90
2018-11-26T15:25:36.468Z,22.20
2018-11-26T15:28:12.322Z,22.40
2018-11-26T15:30:46.969Z,22.90
2018-11-26T15:33:21.657Z,22.90
2018-11-26T15:35:56.284Z,23.43
2018-11-26T15:38:30.917Z,22.00
2018-11-26T15:41:05.701Z,26.47
2018-11-26T15:43:40.193Z,25.27
2018-11-26T15:46:14.685Z,26.07
2018-11-26T15:48:49.411Z,21.17
2018-11-26T15:51:23.788Z,23.60
2018-11-26T15:53:58.439Z,24.50
2018-11-26T15:56:32.969Z,23.90
2018-11-26T15:59:07.724Z,23.33
2018-11-26T16:01:42.207Z,22.57
2018-11-26T16:04:17.115Z,21.83
2018-11-26T16:06:51.897Z,23.47
2018-11-26T16:09:26.636Z,22.57
2018-11-26T16:12:01.247Z,21.53
2018-11-26T16:14:36.092Z,22.33
2018-11-26T16:17:10.611Z,20.57
2018-11-26T16:19:45.080Z,20.73
2018-11-26T16:22:19.596Z,22.07
2018-11-26T16:24:54.204Z,19.23
2018-11-26T16:27:28.936Z,21.83
2018-11-26T16:30:03.980Z,20.47
2018-11-26T16:32:40.007Z,19.40
2018-11-26T16:35:23.254Z,17.43
2018-11-26T16:37:57.821Z,20.97
2018-11-26T16:40:32.645Z,17.70
2018-11-26T16:43:14.224Z,17.43
2018-11-26T16:45:48.897Z,16.97
2018-11-26T16:48:23.326Z,17.80
2018-11-26T16:50:57.942Z,18.17
2018-11-26T16:53:32.605Z,19.57
2018-11-26T16:56:07.411Z,21.03
2018-11-26T16:58:42.088Z,19.90
2018-11-26T17:01:16.829Z,18.60
2018-11-26T17:03:51.931Z,18.10
2018-11-26T17:06:26.620Z,18.17
2018-11-26T17:09:01.534Z,15.70
2018-11-26T17:11:36.309Z,19.77
2018-11-26T17:14:11.711Z,17.90
2018-11-26T17:16:46.324Z,15.17
2018-11-26T17:19:20.920Z,18.27
2018-11-26T17:21:55.717Z,15.70
2018-11-26T17:24:30.751Z,18.77
2018-11-26T17:27:05.440Z,17.60
2018-11-26T17:29:40.453Z,17.40
2018-11-26T17:32:15.296Z,18.57
2018-11-26T17:34:50.474Z,18.87
2018-11-26T17:37:24.888Z,16.80
2018-11-26T17:39:59.480Z,16.77
2018-11-26T17:42:34.502Z,19.30
2018-11-26T17:45:16.249Z,20.00
2018-11-26T17:47:58.501Z,18.47
2018-11-26T17:50:35.686Z,20.03
2018-11-26T17:53:20.798Z,17.83
2018-11-26T17:55:56.520Z,19.17
2018-11-26T17:58:31.069Z,19.47
2018-11-26T18:01:09.548Z,20.47
2018-11-26T18:03:44.723Z,20.00
2018-11-26T18:06:19.460Z,19.70
2018-11-26T18:08:55.544Z,19.27
2018-11-26T18:11:30.628Z,19.93
2018-11-26T18:14:05.361Z,19.00
2018-11-26T18:16:40.613Z,18.87
2018-11-26T18:19:15.162Z,19.80
2018-11-26T18:21:50.685Z,19.80
2018-11-26T18:24:25.605Z,19.67
2018-11-26T18:27:00.553Z,19.40
2018-11-26T18:29:36.448Z,16.93
2018-11-26T18:32:12.014Z,18.00
2018-11-26T18:34:47.320Z,18.10
2018-11-26T18:37:22.170Z,19.90
2018-11-26T18:39:56.951Z,19.90
2018-11-26T18:42:31.468Z,20.80
2018-11-26T18:45:08.505Z,21.07
2018-11-26T18:47:44.579Z,20.23
2018-11-26T18:50:20.606Z,21.40
2018-11-26T18:52:55.572Z,19.30
2018-11-26T18:55:30.259Z,19.20
2018-11-26T18:58:07.209Z,16.03
2018-11-26T19:00:50.692Z,17.37
2018-11-26T19:03:25.567Z,18.20
2018-11-26T19:06:00.404Z,18.37
2018-11-26T19:08:37.820Z,18.53
2018-11-26T19:11:14.833Z,18.00
2018-11-26T19:14:07.100Z,18.37
2018-11-26T19:16:47.395Z,16.80
2018-11-26T19:19:22.509Z,15.00
2018-11-26T19:21:59.084Z,17.30
2018-11-26T19:24:34.327Z,16.53
2018-11-26T19:30:28.788Z,16.03
2018-11-26T19:33:07.966Z,14.60
2018-11-26T19:35:42.746Z,13.57
2018-11-26T19:38:19.547Z,15.97
2018-11-26T19:40:54.490Z,12.97
2018-11-26T19:43:40.937Z,14.27
2018-11-26T19:46:18.070Z,10.10
2018-11-26T19:48:53.185Z,13.30
2018-11-26T19:51:31.916Z,16.17
2018-11-26T19:54:07.864Z,14.50
2018-11-26T19:56:43.128Z,13.33
2018-11-26T19:59:24.746Z,14.57
2018-11-26T20:02:13.730Z,15.40
2018-11-26T20:04:52.304Z,14.43
2018-11-26T20:07:32.642Z,14.83
2018-11-26T20:10:20.692Z,14.10
2018-11-26T20:12:59.658Z,14.93
2018-11-26T20:15:34.500Z,12.63
2018-11-26T20:18:13.097Z,14.53
2018-11-26T20:20:48.918Z,14.20
2018-11-26T20:23:23.879Z,14.83
2018-11-26T20:26:03.147Z,17.90
2018-11-26T20:28:38.130Z,13.83
2018-11-26T20:31:16.103Z,14.10
2018-11-26T20:33:51.164Z,13.77
2018-11-26T20:36:25.943Z,14.03
2018-11-26T20:39:01.438Z,14.70
2018-11-26T20:41:36.133Z,15.20
2018-11-26T20:44:15.650Z,12.90
2018-11-26T20:46:50.636Z,12.73
2018-11-26T20:49:37.814Z,12.77
2018-11-26T20:52:12.490Z,12.57
2018-11-26T20:54:50.603Z,14.60
2018-11-26T20:57:27.274Z,12.67
2018-11-26T21:00:02.454Z,14.33
2018-11-26T21:02:38.136Z,12.60
2018-11-26T21:05:13.019Z,14.40
2018-11-26T21:07:48.728Z,11.37
2018-11-26T21:10:24.401Z,12.77
2018-11-26T21:12:59.103Z,13.57
2018-11-26T21:15:33.958Z,14.80
2018-11-26T21:18:10.083Z,13.37
2018-11-26T21:20:47.840Z,14.53
2018-11-26T21:23:25.225Z,13.47
2018-11-26T21:26:01.199Z,12.73
2018-11-26T21:28:36.571Z,12.50
2018-11-26T21:31:11.220Z,12.83
2018-11-26T21:33:46.110Z,13.63
2018-11-26T21:36:20.680Z,13.90
2018-11-26T21:38:55.636Z,14.70
2018-11-26T21:41:30.529Z,13.20
2018-11-26T21:44:05.538Z,15.20
2018-11-26T21:46:40.274Z,14.00
2018-11-26T21:49:16.204Z,15.27
2018-11-26T21:51:51.165Z,12.87
2018-11-26T21:54:26.175Z,13.27
2018-11-26T21:57:01.065Z,14.27
2018-11-26T21:59:46.181Z,13.00
2018-11-26T22:02:20.961Z,13.43
2018-11-26T22:04:55.684Z,13.60
2018-11-26T22:07:30.534Z,13.77
2018-11-26T22:10:07.902Z,14.93
2018-11-26T22:12:43.420Z,14.23
2018-11-26T22:15:18.259Z,14.43
2018-11-26T22:17:53.166Z,16.67
2018-11-26T22:20:29.966Z,13.70
2018-11-26T22:23:04.648Z,13.33
2018-11-26T22:25:39.507Z,12.63
2018-11-26T22:28:14.172Z,11.13
2018-11-26T22:30:48.913Z,10.20
2018-11-26T22:33:23.511Z,10.97
2018-11-26T22:35:58.431Z,10.93
2018-11-26T22:38:33.145Z,12.50
2018-11-26T22:41:07.685Z,13.20
2018-11-26T22:43:41.987Z,11.20
2018-11-26T22:46:16.639Z,12.70
2018-11-26T22:48:51.109Z,13.60
2018-11-26T22:51:25.646Z,12.87
2018-11-26T22:54:00.531Z,12.57
2018-11-26T22:56:35.472Z,11.13
2018-11-26T22:59:10.293Z,11.23
2018-11-26T23:01:45.035Z,10.77
2018-11-26T23:04:19.854Z,11.20
2018-11-26T23:06:54.753Z,12.20
2018-11-26T23:09:29.404Z,12.37
2018-11-26T23:12:03.828Z,11.13
2018-11-26T23:14:38.347Z,11.83
2018-11-26T23:17:13.379Z,11.33
2018-11-26T23:19:48.312Z,12.03
2018-11-26T23:22:22.920Z,10.00
2018-11-26T23:24:57.690Z,11.50
2018-11-26T23:27:32.608Z,11.90
2018-11-26T23:30:14.652Z,11.10
2018-11-26T23:32:51.467Z,12.47
2018-11-26T23:35:26.109Z,11.57
2018-11-26T23:38:00.940Z,11.27
2018-11-26T23:40:36.077Z,11.80
2018-11-26T23:43:10.958Z,10.33
2018-11-26T23:45:45.547Z,11.00
2018-11-26T23:48:20.237Z,10.40
2018-11-26T23:50:54.632Z,10.90
2018-11-26T23:53:29.224Z,9.63
2018-11-26T23:56:03.816Z,11.10
2018-11-26T23:58:38.552Z,12.27
